sensor_id;sensor_type;location;lat;lon;timestamp;P1;durP1;ratioP1;P2;durP2;ratioP2
6723;SDS011;3399;52.530;13.304;2023-09-19T00:01:05;4.17;;;2.07;;
6723;SDS011;3399;52.530;13.304;2023-09-19T00:03:33;3.83;;;2.57;;
6723;SDS011;3399;52.530;13.304;2023-09-19T00:06:02;4.37;;;2.60;;
6723;SDS011;3399;52.530;13.304;2023-09-19T00:08:29;2.50;;;2.13;;
6723;SDS011;3399;52.530;13.304;2023-09-19T00:10:55;5.70;;;2.57;;
6723;SDS011;3399;52.530;13.304;2023-09-19T00:13:21;5.10;;;2.43;;
6723;SDS011;3399;52.530;13.304;2023-09-19T00:15:48;3.07;;;2.37;;
6723;SDS011;3399;52.530;13.304;2023-09-19T00:18:13;2.87;;;1.83;;
6723;SDS011;3399;52.530;13.304;2023-09-19T00:20:40;4.33;;;2.00;;
6723;SDS011;3399;52.530;13.304;2023-09-19T00:23:07;3.37;;;2.17;;
6723;SDS011;3399;52.530;13.304;2023-09-19T00:25:36;4.87;;;2.10;;
6723;SDS011;3399;52.530;13.304;2023-09-19T00:28:02;2.97;;;2.33;;
6723;SDS011;3399;52.530;13.304;2023-09-19T00:30:29;3.50;;;1.87;;
6723;SDS011;3399;52.530;13.304;2023-09-19T00:32:54;3.33;;;2.10;;
6723;SDS011;3399;52.530;13.304;2023-09-19T00:35:23;2.37;;;1.83;;
6723;SDS011;3399;52.530;13.304;2023-09-19T00:37:49;3.43;;;2.20;;
6723;SDS011;3399;52.530;13.304;2023-09-19T00:40:15;2.30;;;2.07;;
6723;SDS011;3399;52.530;13.304;2023-09-19T00:42:42;5.07;;;2.53;;
6723;SDS011;3399;52.530;13.304;2023-09-19T00:45:08;3.23;;;1.73;;
6723;SDS011;3399;52.530;13.304;2023-09-19T00:47:48;2.90;;;1.83;;
6723;SDS011;3399;52.530;13.304;2023-09-19T00:50:15;2.27;;;1.77;;
6723;SDS011;3399;52.530;13.304;2023-09-19T00:52:46;3.37;;;2.20;;
6723;SDS011;3399;52.530;13.304;2023-09-19T00:55:15;2.40;;;2.20;;
6723;SDS011;3399;52.530;13.304;2023-09-19T00:57:41;2.47;;;1.80;;
6723;SDS011;3399;52.530;13.304;2023-09-19T01:00:07;4.33;;;2.00;;
6723;SDS011;3399;52.530;13.304;2023-09-19T01:02:37;7.30;;;2.40;;
6723;SDS011;3399;52.530;13.304;2023-09-19T01:05:04;2.87;;;1.67;;
6723;SDS011;3399;52.530;13.304;2023-09-19T01:07:31;2.43;;;2.20;;
6723;SDS011;3399;52.530;13.304;2023-09-19T01:10:03;4.60;;;1.90;;
6723;SDS011;3399;52.530;13.304;2023-09-19T01:12:37;3.20;;;2.40;;
6723;SDS011;3399;52.530;13.304;2023-09-19T01:15:55;3.83;;;2.20;;
6723;SDS011;3399;52.530;13.304;2023-09-19T01:20:52;4.63;;;2.53;;
6723;SDS011;3399;52.530;13.304;2023-09-19T01:29:17;7.43;;;3.03;;
6723;SDS011;3399;52.530;13.304;2023-09-19T01:31:54;3.30;;;2.20;;
6723;SDS011;3399;52.530;13.304;2023-09-19T01:34:26;4.73;;;2.53;;
6723;SDS011;3399;52.530;13.304;2023-09-19T01:36:51;3.63;;;2.50;;
6723;SDS011;3399;52.530;13.304;2023-09-19T01:39:17;3.87;;;2.33;;
6723;SDS011;3399;52.530;13.304;2023-09-19T01:44:17;2.87;;;2.30;;
6723;SDS011;3399;52.530;13.304;2023-09-19T01:46:49;2.00;;;1.90;;
6723;SDS011;3399;52.530;13.304;2023-09-19T01:49:18;3.77;;;2.10;;
6723;SDS011;3399;52.530;13.304;2023-09-19T01:52:04;3.30;;;2.20;;
6723;SDS011;3399;52.530;13.304;2023-09-19T01:54:40;3.20;;;2.20;;
6723;SDS011;3399;52.530;13.304;2023-09-19T01:57:26;3.33;;;1.93;;
6723;SDS011;3399;52.530;13.304;2023-09-19T01:59:57;5.33;;;2.23;;
6723;SDS011;3399;52.530;13.304;2023-09-19T02:02:37;5.87;;;2.20;;
6723;SDS011;3399;52.530;13.304;2023-09-19T02:05:05;2.53;;;2.33;;
6723;SDS011;3399;52.530;13.304;2023-09-19T02:07:31;3.37;;;2.37;;
6723;SDS011;3399;52.530;13.304;2023-09-19T02:09:57;4.00;;;1.90;;
6723;SDS011;3399;52.530;13.304;2023-09-19T02:12:25;5.60;;;2.37;;
6723;SDS011;3399;52.530;13.304;2023-09-19T02:14:51;8.17;;;2.00;;
6723;SDS011;3399;52.530;13.304;2023-09-19T02:17:16;4.27;;;1.70;;
6723;SDS011;3399;52.530;13.304;2023-09-19T02:19:42;2.77;;;2.30;;
6723;SDS011;3399;52.530;13.304;2023-09-19T02:22:07;4.03;;;2.33;;
6723;SDS011;3399;52.530;13.304;2023-09-19T02:24:35;2.70;;;2.30;;
6723;SDS011;3399;52.530;13.304;2023-09-19T02:27:04;3.00;;;2.20;;
6723;SDS011;3399;52.530;13.304;2023-09-19T02:29:30;3.80;;;2.33;;
6723;SDS011;3399;52.530;13.304;2023-09-19T02:31:56;4.73;;;2.20;;
6723;SDS011;3399;52.530;13.304;2023-09-19T02:34:22;2.73;;;2.53;;
6723;SDS011;3399;52.530;13.304;2023-09-19T02:36:48;2.43;;;2.23;;
6723;SDS011;3399;52.530;13.304;2023-09-19T02:39:13;4.13;;;2.30;;
6723;SDS011;3399;52.530;13.304;2023-09-19T02:41:42;3.33;;;2.30;;
6723;SDS011;3399;52.530;13.304;2023-09-19T02:44:07;2.13;;;1.90;;
6723;SDS011;3399;52.530;13.304;2023-09-19T02:46:33;3.80;;;2.30;;
6723;SDS011;3399;52.530;13.304;2023-09-19T02:49:01;2.90;;;2.20;;
6723;SDS011;3399;52.530;13.304;2023-09-19T02:51:30;3.87;;;2.30;;
6723;SDS011;3399;52.530;13.304;2023-09-19T02:53:55;2.40;;;2.03;;
6723;SDS011;3399;52.530;13.304;2023-09-19T02:56:21;3.63;;;2.20;;
6723;SDS011;3399;52.530;13.304;2023-09-19T02:58:47;9.10;;;2.43;;
6723;SDS011;3399;52.530;13.304;2023-09-19T03:01:13;4.47;;;2.63;;
6723;SDS011;3399;52.530;13.304;2023-09-19T03:03:39;2.07;;;1.83;;
6723;SDS011;3399;52.530;13.304;2023-09-19T03:06:05;2.80;;;1.97;;
6723;SDS011;3399;52.530;13.304;2023-09-19T03:08:33;2.33;;;2.13;;
6723;SDS011;3399;52.530;13.304;2023-09-19T03:11:01;3.13;;;1.60;;
6723;SDS011;3399;52.530;13.304;2023-09-19T03:13:31;6.33;;;1.90;;
6723;SDS011;3399;52.530;13.304;2023-09-19T03:15:57;2.40;;;1.40;;
6723;SDS011;3399;52.530;13.304;2023-09-19T03:18:23;1.40;;;1.30;;
6723;SDS011;3399;52.530;13.304;2023-09-19T03:20:54;8.53;;;1.63;;
6723;SDS011;3399;52.530;13.304;2023-09-19T03:23:21;2.57;;;1.30;;
6723;SDS011;3399;52.530;13.304;2023-09-19T03:25:46;2.33;;;1.10;;
6723;SDS011;3399;52.530;13.304;2023-09-19T03:28:12;5.10;;;1.40;;
6723;SDS011;3399;52.530;13.304;2023-09-19T03:30:40;2.80;;;1.20;;
6723;SDS011;3399;52.530;13.304;2023-09-19T03:33:06;1.40;;;1.30;;
6723;SDS011;3399;52.530;13.304;2023-09-19T03:35:31;1.77;;;1.27;;
6723;SDS011;3399;52.530;13.304;2023-09-19T03:37:57;4.40;;;1.53;;
6723;SDS011;3399;52.530;13.304;2023-09-19T03:40:22;3.80;;;1.37;;
6723;SDS011;3399;52.530;13.304;2023-09-19T03:42:48;1.27;;;1.17;;
6723;SDS011;3399;52.530;13.304;2023-09-19T03:45:14;1.40;;;1.30;;
6723;SDS011;3399;52.530;13.304;2023-09-19T03:47:41;1.47;;;1.30;;
6723;SDS011;3399;52.530;13.304;2023-09-19T03:50:07;1.50;;;1.40;;
6723;SDS011;3399;52.530;13.304;2023-09-19T03:52:33;1.47;;;1.23;;
6723;SDS011;3399;52.530;13.304;2023-09-19T03:54:59;1.60;;;1.10;;
6723;SDS011;3399;52.530;13.304;2023-09-19T03:57:26;2.80;;;1.60;;
6723;SDS011;3399;52.530;13.304;2023-09-19T03:59:51;3.17;;;1.50;;
6723;SDS011;3399;52.530;13.304;2023-09-19T04:02:18;3.17;;;1.43;;
6723;SDS011;3399;52.530;13.304;2023-09-19T04:04:50;1.20;;;1.10;;
6723;SDS011;3399;52.530;13.304;2023-09-19T04:07:17;1.90;;;1.40;;
6723;SDS011;3399;52.530;13.304;2023-09-19T04:09:44;1.63;;;1.53;;
6723;SDS011;3399;52.530;13.304;2023-09-19T04:12:10;1.13;;;1.13;;
6723;SDS011;3399;52.530;13.304;2023-09-19T04:14:36;1.60;;;1.50;;
6723;SDS011;3399;52.530;13.304;2023-09-19T04:17:02;2.07;;;1.23;;
6723;SDS011;3399;52.530;13.304;2023-09-19T04:19:28;2.50;;;1.10;;
6723;SDS011;3399;52.530;13.304;2023-09-19T04:21:53;2.30;;;1.70;;
6723;SDS011;3399;52.530;13.304;2023-09-19T04:24:19;1.50;;;1.27;;
6723;SDS011;3399;52.530;13.304;2023-09-19T04:26:45;3.73;;;1.50;;
6723;SDS011;3399;52.530;13.304;2023-09-19T04:29:10;3.10;;;1.47;;
6723;SDS011;3399;52.530;13.304;2023-09-19T04:31:38;1.93;;;1.60;;
6723;SDS011;3399;52.530;13.304;2023-09-19T04:34:05;2.70;;;1.13;;
6723;SDS011;3399;52.530;13.304;2023-09-19T04:36:32;2.53;;;1.67;;
6723;SDS011;3399;52.530;13.304;2023-09-19T04:38:58;2.47;;;1.60;;
6723;SDS011;3399;52.530;13.304;2023-09-19T04:41:23;5.73;;;2.00;;
6723;SDS011;3399;52.530;13.304;2023-09-19T04:43:49;1.43;;;1.33;;
6723;SDS011;3399;52.530;13.304;2023-09-19T04:46:15;2.00;;;1.30;;
6723;SDS011;3399;52.530;13.304;2023-09-19T04:48:42;3.00;;;1.70;;
6723;SDS011;3399;52.530;13.304;2023-09-19T04:51:08;2.23;;;1.57;;
6723;SDS011;3399;52.530;13.304;2023-09-19T04:53:33;2.20;;;1.10;;
6723;SDS011;3399;52.530;13.304;2023-09-19T04:55:59;2.20;;;1.80;;
6723;SDS011;3399;52.530;13.304;2023-09-19T04:58:24;2.30;;;1.77;;
6723;SDS011;3399;52.530;13.304;2023-09-19T05:00:50;1.63;;;1.53;;
6723;SDS011;3399;52.530;13.304;2023-09-19T05:03:16;3.43;;;1.70;;
6723;SDS011;3399;52.530;13.304;2023-09-19T05:05:42;4.63;;;1.70;;
6723;SDS011;3399;52.530;13.304;2023-09-19T05:08:08;3.47;;;1.63;;
6723;SDS011;3399;52.530;13.304;2023-09-19T05:10:34;3.20;;;1.60;;
6723;SDS011;3399;52.530;13.304;2023-09-19T05:13:02;3.23;;;1.40;;
6723;SDS011;3399;52.530;13.304;2023-09-19T05:15:29;2.60;;;1.50;;
6723;SDS011;3399;52.530;13.304;2023-09-19T05:17:55;2.93;;;1.90;;
6723;SDS011;3399;52.530;13.304;2023-09-19T05:20:21;3.27;;;1.27;;
6723;SDS011;3399;52.530;13.304;2023-09-19T05:23:12;2.33;;;1.73;;
6723;SDS011;3399;52.530;13.304;2023-09-19T05:25:38;1.80;;;1.40;;
6723;SDS011;3399;52.530;13.304;2023-09-19T05:28:05;2.40;;;1.20;;
6723;SDS011;3399;52.530;13.304;2023-09-19T05:30:32;3.33;;;1.70;;
6723;SDS011;3399;52.530;13.304;2023-09-19T05:32:58;1.80;;;1.50;;
6723;SDS011;3399;52.530;13.304;2023-09-19T05:35:24;2.20;;;1.50;;
6723;SDS011;3399;52.530;13.304;2023-09-19T05:37:50;4.17;;;1.80;;
6723;SDS011;3399;52.530;13.304;2023-09-19T05:40:17;4.43;;;1.53;;
6723;SDS011;3399;52.530;13.304;2023-09-19T05:42:43;3.00;;;1.70;;
6723;SDS011;3399;52.530;13.304;2023-09-19T05:45:09;2.20;;;1.63;;
6723;SDS011;3399;52.530;13.304;2023-09-19T05:47:37;4.27;;;1.60;;
6723;SDS011;3399;52.530;13.304;2023-09-19T05:50:03;2.67;;;1.83;;
6723;SDS011;3399;52.530;13.304;2023-09-19T05:52:30;2.70;;;2.23;;
6723;SDS011;3399;52.530;13.304;2023-09-19T05:54:55;1.90;;;1.80;;
6723;SDS011;3399;52.530;13.304;2023-09-19T05:57:21;3.40;;;1.97;;
6723;SDS011;3399;52.530;13.304;2023-09-19T05:59:47;2.93;;;1.80;;
6723;SDS011;3399;52.530;13.304;2023-09-19T06:02:15;4.10;;;2.07;;
6723;SDS011;3399;52.530;13.304;2023-09-19T06:04:41;2.60;;;2.40;;
6723;SDS011;3399;52.530;13.304;2023-09-19T06:07:06;3.03;;;1.53;;
6723;SDS011;3399;52.530;13.304;2023-09-19T06:09:32;4.43;;;1.60;;
6723;SDS011;3399;52.530;13.304;2023-09-19T06:11:58;3.17;;;2.40;;
6723;SDS011;3399;52.530;13.304;2023-09-19T06:14:28;4.00;;;2.00;;
6723;SDS011;3399;52.530;13.304;2023-09-19T06:16:53;3.90;;;1.57;;
6723;SDS011;3399;52.530;13.304;2023-09-19T06:19:19;3.07;;;1.53;;
6723;SDS011;3399;52.530;13.304;2023-09-19T06:21:47;3.73;;;1.53;;
6723;SDS011;3399;52.530;13.304;2023-09-19T06:24:13;3.10;;;2.10;;
6723;SDS011;3399;52.530;13.304;2023-09-19T06:26:39;2.47;;;1.80;;
6723;SDS011;3399;52.530;13.304;2023-09-19T06:29:04;2.47;;;1.83;;
6723;SDS011;3399;52.530;13.304;2023-09-19T06:31:32;2.13;;;1.73;;
6723;SDS011;3399;52.530;13.304;2023-09-19T06:33:58;2.23;;;1.40;;
6723;SDS011;3399;52.530;13.304;2023-09-19T06:36:24;4.50;;;1.50;;
6723;SDS011;3399;52.530;13.304;2023-09-19T06:38:49;2.10;;;1.90;;
6723;SDS011;3399;52.530;13.304;2023-09-19T06:41:16;2.27;;;2.07;;
6723;SDS011;3399;52.530;13.304;2023-09-19T06:43:42;2.50;;;1.70;;
6723;SDS011;3399;52.530;13.304;2023-09-19T06:46:08;4.23;;;1.83;;
6723;SDS011;3399;52.530;13.304;2023-09-19T06:48:34;3.20;;;2.60;;
6723;SDS011;3399;52.530;13.304;2023-09-19T06:51:00;3.17;;;1.90;;
6723;SDS011;3399;52.530;13.304;2023-09-19T06:53:26;3.50;;;1.57;;
6723;SDS011;3399;52.530;13.304;2023-09-19T06:55:55;2.63;;;1.80;;
6723;SDS011;3399;52.530;13.304;2023-09-19T06:58:22;2.17;;;2.07;;
6723;SDS011;3399;52.530;13.304;2023-09-19T07:00:47;2.63;;;1.70;;
6723;SDS011;3399;52.530;13.304;2023-09-19T07:03:15;4.77;;;2.20;;
6723;SDS011;3399;52.530;13.304;2023-09-19T07:05:41;1.83;;;1.73;;
6723;SDS011;3399;52.530;13.304;2023-09-19T07:08:08;3.13;;;2.40;;
6723;SDS011;3399;52.530;13.304;2023-09-19T07:10:37;2.43;;;2.23;;
6723;SDS011;3399;52.530;13.304;2023-09-19T07:13:06;4.40;;;2.03;;
6723;SDS011;3399;52.530;13.304;2023-09-19T07:15:35;3.20;;;1.90;;
6723;SDS011;3399;52.530;13.304;2023-09-19T07:18:04;9.50;;;2.37;;
6723;SDS011;3399;52.530;13.304;2023-09-19T07:20:31;2.23;;;2.00;;
6723;SDS011;3399;52.530;13.304;2023-09-19T07:22:58;3.00;;;1.77;;
6723;SDS011;3399;52.530;13.304;2023-09-19T07:25:29;2.10;;;1.70;;
6723;SDS011;3399;52.530;13.304;2023-09-19T07:27:56;6.00;;;3.17;;
6723;SDS011;3399;52.530;13.304;2023-09-19T07:30:24;7.47;;;1.90;;
6723;SDS011;3399;52.530;13.304;2023-09-19T07:32:51;3.63;;;2.23;;
6723;SDS011;3399;52.530;13.304;2023-09-19T07:35:17;9.77;;;2.97;;
6723;SDS011;3399;52.530;13.304;2023-09-19T07:37:45;3.40;;;2.53;;
6723;SDS011;3399;52.530;13.304;2023-09-19T07:40:15;7.50;;;2.73;;
6723;SDS011;3399;52.530;13.304;2023-09-19T07:42:41;3.20;;;1.80;;
6723;SDS011;3399;52.530;13.304;2023-09-19T07:45:07;4.13;;;2.47;;
6723;SDS011;3399;52.530;13.304;2023-09-19T07:47:33;5.07;;;2.93;;
6723;SDS011;3399;52.530;13.304;2023-09-19T07:49:59;4.47;;;2.47;;
6723;SDS011;3399;52.530;13.304;2023-09-19T07:52:27;6.27;;;2.97;;
6723;SDS011;3399;52.530;13.304;2023-09-19T07:54:53;4.97;;;2.40;;
6723;SDS011;3399;52.530;13.304;2023-09-19T07:57:19;3.77;;;2.33;;
6723;SDS011;3399;52.530;13.304;2023-09-19T07:59:45;4.77;;;2.93;;
6723;SDS011;3399;52.530;13.304;2023-09-19T08:02:11;4.00;;;2.40;;
6723;SDS011;3399;52.530;13.304;2023-09-19T08:04:44;3.53;;;2.23;;
6723;SDS011;3399;52.530;13.304;2023-09-19T08:07:11;8.57;;;4.37;;
6723;SDS011;3399;52.530;13.304;2023-09-19T08:09:38;9.03;;;3.97;;
6723;SDS011;3399;52.530;13.304;2023-09-19T08:12:04;6.27;;;2.53;;
6723;SDS011;3399;52.530;13.304;2023-09-19T08:14:30;4.50;;;2.60;;
6723;SDS011;3399;52.530;13.304;2023-09-19T08:16:56;2.50;;;2.30;;
6723;SDS011;3399;52.530;13.304;2023-09-19T08:19:23;8.33;;;3.43;;
6723;SDS011;3399;52.530;13.304;2023-09-19T08:21:53;11.87;;;3.10;;
6723;SDS011;3399;52.530;13.304;2023-09-19T08:24:23;3.97;;;2.97;;
6723;SDS011;3399;52.530;13.304;2023-09-19T08:26:50;7.07;;;3.60;;
6723;SDS011;3399;52.530;13.304;2023-09-19T08:29:16;5.90;;;2.90;;
6723;SDS011;3399;52.530;13.304;2023-09-19T08:31:42;6.13;;;3.10;;
6723;SDS011;3399;52.530;13.304;2023-09-19T08:34:08;9.20;;;3.53;;
6723;SDS011;3399;52.530;13.304;2023-09-19T08:36:33;6.17;;;3.43;;
6723;SDS011;3399;52.530;13.304;2023-09-19T08:39:00;4.53;;;3.10;;
6723;SDS011;3399;52.530;13.304;2023-09-19T08:41:25;5.60;;;3.00;;
6723;SDS011;3399;52.530;13.304;2023-09-19T08:43:51;3.27;;;2.97;;
6723;SDS011;3399;52.530;13.304;2023-09-19T08:46:18;4.20;;;2.90;;
6723;SDS011;3399;52.530;13.304;2023-09-19T08:48:45;4.50;;;2.97;;
6723;SDS011;3399;52.530;13.304;2023-09-19T08:54:21;4.13;;;2.73;;
6723;SDS011;3399;52.530;13.304;2023-09-19T08:56:51;4.03;;;3.13;;
6723;SDS011;3399;52.530;13.304;2023-09-19T08:59:20;5.80;;;2.90;;
6723;SDS011;3399;52.530;13.304;2023-09-19T09:01:49;7.53;;;3.00;;
6723;SDS011;3399;52.530;13.304;2023-09-19T09:04:18;7.40;;;2.87;;
6723;SDS011;3399;52.530;13.304;2023-09-19T09:06:45;7.47;;;3.10;;
6723;SDS011;3399;52.530;13.304;2023-09-19T09:09:14;5.10;;;2.77;;
6723;SDS011;3399;52.530;13.304;2023-09-19T09:11:40;3.30;;;2.50;;
6723;SDS011;3399;52.530;13.304;2023-09-19T09:14:06;8.20;;;3.10;;
6723;SDS011;3399;52.530;13.304;2023-09-19T09:16:32;3.00;;;2.40;;
6723;SDS011;3399;52.530;13.304;2023-09-19T09:18:58;5.63;;;2.73;;
6723;SDS011;3399;52.530;13.304;2023-09-19T09:21:27;5.47;;;2.50;;
6723;SDS011;3399;52.530;13.304;2023-09-19T09:23:53;4.27;;;2.50;;
6723;SDS011;3399;52.530;13.304;2023-09-19T09:26:40;9.20;;;3.07;;
6723;SDS011;3399;52.530;13.304;2023-09-19T09:29:12;4.73;;;3.37;;
6723;SDS011;3399;52.530;13.304;2023-09-19T09:31:38;4.83;;;2.77;;
6723;SDS011;3399;52.530;13.304;2023-09-19T09:34:04;4.83;;;2.40;;
6723;SDS011;3399;52.530;13.304;2023-09-19T09:36:36;6.20;;;3.03;;
6723;SDS011;3399;52.530;13.304;2023-09-19T09:39:04;2.80;;;2.37;;
6723;SDS011;3399;52.530;13.304;2023-09-19T09:41:58;6.00;;;2.63;;
6723;SDS011;3399;52.530;13.304;2023-09-19T09:44:24;6.47;;;3.00;;
6723;SDS011;3399;52.530;13.304;2023-09-19T09:46:49;4.50;;;3.20;;
6723;SDS011;3399;52.530;13.304;2023-09-19T09:49:25;13.33;;;3.30;;
6723;SDS011;3399;52.530;13.304;2023-09-19T09:52:01;6.23;;;2.90;;
6723;SDS011;3399;52.530;13.304;2023-09-19T09:54:32;6.57;;;3.03;;
6723;SDS011;3399;52.530;13.304;2023-09-19T09:57:01;9.57;;;3.67;;
6723;SDS011;3399;52.530;13.304;2023-09-19T09:59:45;7.27;;;3.10;;
6723;SDS011;3399;52.530;13.304;2023-09-19T10:02:16;5.13;;;2.60;;
6723;SDS011;3399;52.530;13.304;2023-09-19T10:04:51;5.37;;;3.03;;
6723;SDS011;3399;52.530;13.304;2023-09-19T10:07:27;5.50;;;3.17;;
6723;SDS011;3399;52.530;13.304;2023-09-19T10:09:59;7.87;;;2.93;;
6723;SDS011;3399;52.530;13.304;2023-09-19T10:12:35;5.87;;;3.10;;
6723;SDS011;3399;52.530;13.304;2023-09-19T10:15:05;6.23;;;2.53;;
6723;SDS011;3399;52.530;13.304;2023-09-19T10:17:33;7.00;;;2.53;;
6723;SDS011;3399;52.530;13.304;2023-09-19T10:20:01;4.03;;;2.60;;
6723;SDS011;3399;52.530;13.304;2023-09-19T10:22:34;5.33;;;2.80;;
6723;SDS011;3399;52.530;13.304;2023-09-19T10:25:02;9.20;;;3.17;;
6723;SDS011;3399;52.530;13.304;2023-09-19T10:27:32;5.30;;;2.10;;
6723;SDS011;3399;52.530;13.304;2023-09-19T10:30:02;3.73;;;2.70;;
6723;SDS011;3399;52.530;13.304;2023-09-19T10:32:32;5.47;;;2.70;;
6723;SDS011;3399;52.530;13.304;2023-09-19T10:35:00;3.70;;;2.53;;
6723;SDS011;3399;52.530;13.304;2023-09-19T10:37:30;3.43;;;2.07;;
6723;SDS011;3399;52.530;13.304;2023-09-19T10:39:59;4.90;;;2.50;;
6723;SDS011;3399;52.530;13.304;2023-09-19T10:42:24;5.50;;;2.30;;
6723;SDS011;3399;52.530;13.304;2023-09-19T10:44:56;6.50;;;2.87;;
6723;SDS011;3399;52.530;13.304;2023-09-19T10:47:25;6.20;;;2.63;;
6723;SDS011;3399;52.530;13.304;2023-09-19T10:49:50;4.57;;;3.03;;
6723;SDS011;3399;52.530;13.304;2023-09-19T10:52:17;4.60;;;2.13;;
6723;SDS011;3399;52.530;13.304;2023-09-19T10:54:48;3.77;;;2.10;;
6723;SDS011;3399;52.530;13.304;2023-09-19T10:57:20;5.67;;;2.50;;
6723;SDS011;3399;52.530;13.304;2023-09-19T11:00:05;8.40;;;2.37;;
6723;SDS011;3399;52.530;13.304;2023-09-19T11:11:47;7.07;;;2.23;;
6723;SDS011;3399;52.530;13.304;2023-09-19T11:30:40;6.13;;;1.97;;
6723;SDS011;3399;52.530;13.304;2023-09-19T11:33:21;4.23;;;1.87;;
6723;SDS011;3399;52.530;13.304;2023-09-19T11:43:45;3.67;;;1.90;;
6723;SDS011;3399;52.530;13.304;2023-09-19T11:46:11;4.93;;;1.83;;
6723;SDS011;3399;52.530;13.304;2023-09-19T11:48:41;4.70;;;2.10;;
6723;SDS011;3399;52.530;13.304;2023-09-19T11:51:12;4.40;;;2.00;;
6723;SDS011;3399;52.530;13.304;2023-09-19T11:53:55;4.77;;;2.07;;
6723;SDS011;3399;52.530;13.304;2023-09-19T11:56:25;5.77;;;1.77;;
6723;SDS011;3399;52.530;13.304;2023-09-19T11:58:53;4.13;;;1.97;;
6723;SDS011;3399;52.530;13.304;2023-09-19T12:01:24;1.60;;;1.50;;
6723;SDS011;3399;52.530;13.304;2023-09-19T12:03:58;4.23;;;1.97;;
6723;SDS011;3399;52.530;13.304;2023-09-19T12:06:25;5.70;;;2.13;;
6723;SDS011;3399;52.530;13.304;2023-09-19T12:08:52;5.63;;;1.50;;
6723;SDS011;3399;52.530;13.304;2023-09-19T12:11:27;6.53;;;2.53;;
6723;SDS011;3399;52.530;13.304;2023-09-19T12:13:58;4.10;;;2.00;;
6723;SDS011;3399;52.530;13.304;2023-09-19T12:16:26;3.80;;;1.67;;
6723;SDS011;3399;52.530;13.304;2023-09-19T12:18:55;1.97;;;1.30;;
6723;SDS011;3399;52.530;13.304;2023-09-19T12:21:22;4.23;;;1.77;;
6723;SDS011;3399;52.530;13.304;2023-09-19T12:26:29;4.33;;;1.83;;
6723;SDS011;3399;52.530;13.304;2023-09-19T12:29:02;3.33;;;1.87;;
6723;SDS011;3399;52.530;13.304;2023-09-19T12:31:30;6.03;;;1.77;;
6723;SDS011;3399;52.530;13.304;2023-09-19T12:34:01;2.70;;;1.70;;
6723;SDS011;3399;52.530;13.304;2023-09-19T12:36:26;5.87;;;2.00;;
6723;SDS011;3399;52.530;13.304;2023-09-19T12:38:55;1.60;;;1.37;;
6723;SDS011;3399;52.530;13.304;2023-09-19T12:41:23;5.83;;;1.50;;
6723;SDS011;3399;52.530;13.304;2023-09-19T12:43:50;3.63;;;1.70;;
6723;SDS011;3399;52.530;13.304;2023-09-19T12:46:22;3.77;;;2.13;;
6723;SDS011;3399;52.530;13.304;2023-09-19T12:51:47;3.13;;;1.80;;
6723;SDS011;3399;52.530;13.304;2023-09-19T12:54:14;4.17;;;2.17;;
6723;SDS011;3399;52.530;13.304;2023-09-19T12:56:41;3.73;;;1.80;;
6723;SDS011;3399;52.530;13.304;2023-09-19T12:59:12;2.93;;;1.20;;
6723;SDS011;3399;52.530;13.304;2023-09-19T13:01:39;3.20;;;1.67;;
6723;SDS011;3399;52.530;13.304;2023-09-19T13:04:22;3.23;;;1.43;;
6723;SDS011;3399;52.530;13.304;2023-09-19T13:06:53;4.47;;;1.80;;
6723;SDS011;3399;52.530;13.304;2023-09-19T13:09:20;3.97;;;1.70;;
6723;SDS011;3399;52.530;13.304;2023-09-19T13:11:47;6.17;;;2.07;;
6723;SDS011;3399;52.530;13.304;2023-09-19T13:14:24;2.20;;;1.60;;
6723;SDS011;3399;52.530;13.304;2023-09-19T13:17:05;5.40;;;1.80;;
6723;SDS011;3399;52.530;13.304;2023-09-19T13:19:51;3.10;;;1.47;;
6723;SDS011;3399;52.530;13.304;2023-09-19T13:22:41;5.83;;;1.93;;
6723;SDS011;3399;52.530;13.304;2023-09-19T13:25:10;4.63;;;1.60;;
6723;SDS011;3399;52.530;13.304;2023-09-19T13:27:43;5.27;;;1.67;;
6723;SDS011;3399;52.530;13.304;2023-09-19T13:30:10;4.97;;;1.97;;
6723;SDS011;3399;52.530;13.304;2023-09-19T13:32:36;3.57;;;1.90;;
6723;SDS011;3399;52.530;13.304;2023-09-19T13:35:03;3.47;;;1.77;;
6723;SDS011;3399;52.530;13.304;2023-09-19T13:37:30;4.10;;;1.60;;
6723;SDS011;3399;52.530;13.304;2023-09-19T13:39:55;7.07;;;1.70;;
6723;SDS011;3399;52.530;13.304;2023-09-19T13:42:23;1.83;;;1.53;;
6723;SDS011;3399;52.530;13.304;2023-09-19T13:44:50;2.03;;;1.23;;
6723;SDS011;3399;52.530;13.304;2023-09-19T13:47:16;2.93;;;1.67;;
6723;SDS011;3399;52.530;13.304;2023-09-19T13:49:41;4.63;;;1.50;;
6723;SDS011;3399;52.530;13.304;2023-09-19T13:52:08;3.93;;;2.03;;
6723;SDS011;3399;52.530;13.304;2023-09-19T13:54:34;5.00;;;1.63;;
6723;SDS011;3399;52.530;13.304;2023-09-19T13:56:59;2.33;;;1.70;;
6723;SDS011;3399;52.530;13.304;2023-09-19T13:59:25;2.23;;;1.30;;
6723;SDS011;3399;52.530;13.304;2023-09-19T14:01:52;4.50;;;1.47;;
6723;SDS011;3399;52.530;13.304;2023-09-19T14:04:18;6.07;;;2.10;;
6723;SDS011;3399;52.530;13.304;2023-09-19T14:06:47;5.70;;;1.60;;
6723;SDS011;3399;52.530;13.304;2023-09-19T14:09:12;3.03;;;1.70;;
6723;SDS011;3399;52.530;13.304;2023-09-19T14:11:38;3.43;;;1.97;;
6723;SDS011;3399;52.530;13.304;2023-09-19T14:14:04;4.23;;;2.10;;
6723;SDS011;3399;52.530;13.304;2023-09-19T14:16:30;2.93;;;1.57;;
6723;SDS011;3399;52.530;13.304;2023-09-19T14:18:56;3.17;;;1.73;;
6723;SDS011;3399;52.530;13.304;2023-09-19T14:21:23;1.90;;;1.80;;
6723;SDS011;3399;52.530;13.304;2023-09-19T14:23:48;4.77;;;1.87;;
6723;SDS011;3399;52.530;13.304;2023-09-19T14:26:14;3.70;;;2.20;;
6723;SDS011;3399;52.530;13.304;2023-09-19T14:28:41;4.53;;;2.30;;
6723;SDS011;3399;52.530;13.304;2023-09-19T14:31:07;2.47;;;1.73;;
6723;SDS011;3399;52.530;13.304;2023-09-19T14:33:34;6.37;;;1.87;;
6723;SDS011;3399;52.530;13.304;2023-09-19T14:36:03;7.17;;;2.20;;
6723;SDS011;3399;52.530;13.304;2023-09-19T14:38:34;1.80;;;1.70;;
6723;SDS011;3399;52.530;13.304;2023-09-19T14:41:01;2.90;;;1.67;;
6723;SDS011;3399;52.530;13.304;2023-09-19T14:43:27;2.10;;;1.37;;
6723;SDS011;3399;52.530;13.304;2023-09-19T14:45:54;3.43;;;1.40;;
6723;SDS011;3399;52.530;13.304;2023-09-19T14:48:27;2.63;;;1.83;;
6723;SDS011;3399;52.530;13.304;2023-09-19T14:50:52;2.03;;;1.80;;
6723;SDS011;3399;52.530;13.304;2023-09-19T14:53:20;3.10;;;1.70;;
6723;SDS011;3399;52.530;13.304;2023-09-19T14:55:46;6.43;;;1.83;;
6723;SDS011;3399;52.530;13.304;2023-09-19T14:58:12;3.60;;;1.87;;
6723;SDS011;3399;52.530;13.304;2023-09-19T15:00:39;3.60;;;1.60;;
6723;SDS011;3399;52.530;13.304;2023-09-19T15:03:04;3.30;;;1.47;;
6723;SDS011;3399;52.530;13.304;2023-09-19T15:05:30;5.90;;;1.73;;
6723;SDS011;3399;52.530;13.304;2023-09-19T15:07:56;3.30;;;1.90;;
6723;SDS011;3399;52.530;13.304;2023-09-19T15:10:22;2.70;;;1.50;;
6723;SDS011;3399;52.530;13.304;2023-09-19T15:12:48;6.63;;;1.63;;
6723;SDS011;3399;52.530;13.304;2023-09-19T15:15:13;5.40;;;1.77;;
6723;SDS011;3399;52.530;13.304;2023-09-19T15:17:39;3.67;;;1.90;;
6723;SDS011;3399;52.530;13.304;2023-09-19T15:20:07;2.20;;;1.63;;
6723;SDS011;3399;52.530;13.304;2023-09-19T15:22:33;2.13;;;1.47;;
6723;SDS011;3399;52.530;13.304;2023-09-19T15:25:02;4.13;;;2.07;;
6723;SDS011;3399;52.530;13.304;2023-09-19T15:27:29;4.70;;;2.10;;
6723;SDS011;3399;52.530;13.304;2023-09-19T15:29:56;4.53;;;1.50;;
6723;SDS011;3399;52.530;13.304;2023-09-19T15:32:23;3.87;;;2.73;;
6723;SDS011;3399;52.530;13.304;2023-09-19T15:34:49;3.23;;;1.70;;
6723;SDS011;3399;52.530;13.304;2023-09-19T15:37:14;6.17;;;2.00;;
6723;SDS011;3399;52.530;13.304;2023-09-19T15:39:40;2.60;;;1.70;;
6723;SDS011;3399;52.530;13.304;2023-09-19T15:42:06;3.23;;;1.93;;
6723;SDS011;3399;52.530;13.304;2023-09-19T15:44:31;4.60;;;2.17;;
6723;SDS011;3399;52.530;13.304;2023-09-19T15:46:57;3.63;;;1.83;;
6723;SDS011;3399;52.530;13.304;2023-09-19T15:49:24;3.47;;;2.00;;
6723;SDS011;3399;52.530;13.304;2023-09-19T15:51:49;5.83;;;1.90;;
6723;SDS011;3399;52.530;13.304;2023-09-19T15:54:15;5.13;;;1.93;;
6723;SDS011;3399;52.530;13.304;2023-09-19T15:56:41;2.80;;;1.67;;
6723;SDS011;3399;52.530;13.304;2023-09-19T15:59:07;3.43;;;1.90;;